Time;durP1;ratioP1;P1;durP2;ratioP2;P2;SDS_P1;SDS_P2;PMS_P1;PMS_P2;Temp;Humidity;BMP_temperature;BMP_pressure;BME280_temperature;BME280_humidity;BME280_pressure;Samples;Min_cycle;Max_cycle;Signal;HPM_P1;HPM_P2
2022/04/03 00:01:41;;;;;;;9.07;8.00;;;0.30;99.90;;;;;;5054802;28;20175;-70
2022/04/03 00:04:07;;;;;;;8.27;7.20;;;0.30;99.90;;;;;;5054691;28;20596;-70
2022/04/03 00:06:33;;;;;;;8.70;7.90;;;0.30;99.90;;;;;;5061990;28;20200;-70
2022/04/03 00:08:58;;;;;;;10.67;7.50;;;0.30;99.90;;;;;;5072239;28;20232;-69
2022/04/03 00:11:26;;;;;;;9.07;8.17;;;0.40;99.90;;;;;;5074707;28;20179;-69
2022/04/03 00:13:52;;;;;;;8.43;7.53;;;0.40;99.90;;;;;;5074241;28;20164;-69
2022/04/03 00:16:18;;;;;;;8.03;7.00;;;0.30;99.90;;;;;;5067053;28;20208;-69
2022/04/03 00:18:45;;;;;;;9.60;7.50;;;0.30;99.90;;;;;;5054586;28;20221;-70
2022/04/03 00:21:12;;;;;;;8.03;7.17;;;0.40;99.90;;;;;;5058378;28;20175;-70
2022/04/03 00:23:38;;;;;;;8.33;7.57;;;0.40;99.90;;;;;;5068387;28;20225;-70
2022/04/03 00:26:03;;;;;;;7.97;6.97;;;0.40;99.90;;;;;;5053848;28;20290;-70
2022/04/03 00:28:30;;;;;;;8.87;8.07;;;0.40;99.90;;;;;;5054370;28;20585;-68
2022/04/03 00:30:56;;;;;;;8.60;7.80;;;0.40;99.90;;;;;;5055253;28;20179;-69
2022/04/03 00:33:22;;;;;;;8.43;6.90;;;0.30;99.90;;;;;;5074347;28;20179;-69
2022/04/03 00:35:50;;;;;;;9.20;7.40;;;0.30;99.90;;;;;;5073598;28;20199;-70
2022/04/03 00:38:16;;;;;;;7.77;7.03;;;0.30;99.90;;;;;;5072783;28;20176;-70
2022/04/03 00:40:44;;;;;;;9.87;7.93;;;0.30;99.90;;;;;;5054033;28;20203;-69
2022/04/03 00:43:11;;;;;;;7.67;7.03;;;0.30;99.90;;;;;;5054076;28;20168;-69
2022/04/03 00:45:38;;;;;;;8.47;7.63;;;0.30;99.90;;;;;;5053602;28;20192;-70
2022/04/03 00:48:05;;;;;;;8.97;8.07;;;0.30;99.90;;;;;;5053879;28;20515;-68
2022/04/03 00:50:31;;;;;;;9.10;7.83;;;0.20;99.90;;;;;;5062894;28;20271;-69
2022/04/03 00:52:56;;;;;;;8.97;8.17;;;0.20;99.90;;;;;;5073761;28;20602;-68
2022/04/03 00:55:22;;;;;;;9.20;7.33;;;0.20;99.90;;;;;;5068920;28;20696;-67
2022/04/03 00:57:48;;;;;;;7.40;6.80;;;0.30;99.90;;;;;;5053698;28;20175;-69
2022/04/03 01:00:14;;;;;;;7.17;6.43;;;0.30;99.90;;;;;;5053743;28;20238;-68
2022/04/03 01:02:40;;;;;;;8.67;7.87;;;0.30;99.90;;;;;;5053781;28;20272;-69
2022/04/03 01:05:07;;;;;;;7.97;7.17;;;0.40;99.90;;;;;;5061438;28;20690;-68
2022/04/03 01:07:33;;;;;;;7.83;7.03;;;0.40;99.90;;;;;;5073057;28;20693;-69
2022/04/03 01:09:59;;;;;;;7.67;6.97;;;0.40;99.90;;;;;;5073503;28;20294;-68
2022/04/03 01:12:25;;;;;;;7.20;6.60;;;0.30;99.90;;;;;;5073313;28;20190;-68
2022/04/03 01:14:51;;;;;;;7.03;6.33;;;0.40;99.90;;;;;;5073405;28;20171;-68
2022/04/03 01:17:16;;;;;;;7.63;6.57;;;0.50;99.90;;;;;;5073228;28;20191;-68
2022/04/03 01:19:42;;;;;;;7.50;6.80;;;0.40;99.90;;;;;;5065109;28;20196;-68
2022/04/03 01:22:08;;;;;;;7.50;6.80;;;0.40;99.90;;;;;;5053425;28;20176;-69
2022/04/03 01:24:34;;;;;;;7.23;6.63;;;0.30;99.90;;;;;;5053279;28;20693;-69
2022/04/03 01:27:00;;;;;;;7.33;6.60;;;0.30;99.90;;;;;;5052729;28;20203;-69
2022/04/03 01:29:26;;;;;;;7.63;6.57;;;0.30;99.90;;;;;;5052997;28;20180;-69
2022/04/03 01:31:52;;;;;;;7.43;6.73;;;0.30;99.90;;;;;;5053227;28;20259;-69
2022/04/03 01:34:19;;;;;;;6.63;6.03;;;0.30;99.90;;;;;;5079009;28;20186;-69
2022/04/03 01:36:45;;;;;;;6.73;6.07;;;0.20;99.90;;;;;;5073432;28;20191;-70
2022/04/03 01:39:11;;;;;;;9.20;7.10;;;0.20;99.90;;;;;;5080866;28;20220;-70
2022/04/03 01:41:38;;;;;;;8.03;5.77;;;0.20;99.90;;;;;;5084225;28;20549;-70
2022/04/03 01:44:05;;;;;;;6.77;6.17;;;0.20;99.90;;;;;;5084154;28;20185;-70
2022/04/03 01:46:31;;;;;;;7.07;6.40;;;0.30;99.90;;;;;;5072561;28;20222;-70
2022/04/03 01:48:56;;;;;;;7.27;6.53;;;0.30;99.90;;;;;;5072152;28;20206;-70
2022/04/03 01:51:22;;;;;;;6.93;6.33;;;0.20;99.90;;;;;;5070634;28;20175;-70
2022/04/03 01:53:47;;;;;;;7.10;6.27;;;0.30;99.90;;;;;;5072437;28;20172;-68
2022/04/03 01:56:13;;;;;;;6.97;6.33;;;0.20;99.90;;;;;;5071447;28;20286;-69
2022/04/03 01:58:38;;;;;;;6.70;6.10;;;0.20;99.90;;;;;;5072562;28;20261;-69
2022/04/03 02:01:05;;;;;;;6.60;5.83;;;0.30;99.90;;;;;;5073570;28;20203;-68
2022/04/03 02:03:30;;;;;;;6.73;6.17;;;0.20;99.90;;;;;;5077292;28;20176;-68
2022/04/03 02:05:57;;;;;;;7.03;6.43;;;0.20;99.90;;;;;;5075620;28;20329;-69
2022/04/03 02:08:23;;;;;;;7.83;6.00;;;0.20;99.90;;;;;;5071842;28;20231;-70
2022/04/03 02:10:49;;;;;;;6.47;5.70;;;0.20;99.90;;;;;;5069190;28;20217;-69
2022/04/03 02:13:15;;;;;;;5.83;5.33;;;0.20;99.90;;;;;;5071880;28;20658;-69
2022/04/03 02:15:41;;;;;;;5.73;5.33;;;0.20;99.90;;;;;;5070355;28;20205;-70
2022/04/03 02:18:08;;;;;;;6.03;5.43;;;0.20;99.90;;;;;;5071239;28;20193;-70
2022/04/03 02:20:33;;;;;;;5.97;5.37;;;0.20;99.90;;;;;;5071548;28;20195;-69
2022/04/03 02:22:59;;;;;;;7.57;5.57;;;0.10;99.90;;;;;;5056687;28;20293;-70
2022/04/03 02:25:25;;;;;;;5.33;4.83;;;0.20;99.90;;;;;;5051583;28;20252;-70
2022/04/03 02:27:54;;;;;;;5.87;5.17;;;0.20;99.90;;;;;;5050961;28;20190;-70
2022/04/03 02:30:21;;;;;;;5.87;5.37;;;0.20;99.90;;;;;;5051863;28;20208;-70
2022/04/03 02:32:46;;;;;;;6.70;5.80;;;0.20;99.90;;;;;;5060002;28;20182;-69
2022/04/03 02:35:13;;;;;;;5.93;5.37;;;0.20;99.90;;;;;;5071348;28;20239;-71
2022/04/03 02:37:40;;;;;;;5.43;4.63;;;0.30;99.90;;;;;;5072145;28;20240;-71
2022/04/03 02:40:09;;;;;;;8.60;6.07;;;0.20;99.90;;;;;;5071778;28;20218;-72
2022/04/03 02:42:34;;;;;;;6.67;5.90;;;0.20;99.90;;;;;;5071972;28;20182;-72
2022/04/03 02:45:01;;;;;;;6.43;5.30;;;0.10;99.90;;;;;;5071644;28;20179;-72
2022/04/03 02:47:27;;;;;;;7.60;5.10;;;0.10;99.90;;;;;;5069934;28;20204;-72
2022/04/03 02:49:52;;;;;;;5.93;5.30;;;0.10;99.90;;;;;;5071655;28;20187;-72
2022/04/03 02:52:19;;;;;;;5.43;4.97;;;0.10;99.90;;;;;;5071273;28;20226;-71
2022/04/03 02:54:45;;;;;;;4.97;4.60;;;0.10;99.90;;;;;;5071203;28;20229;-72
2022/04/03 02:57:12;;;;;;;4.90;4.50;;;0.00;99.90;;;;;;5060870;28;20286;-72
2022/04/03 02:59:38;;;;;;;6.73;4.83;;;0.10;99.90;;;;;;5051564;28;20227;-72
2022/04/03 03:02:04;;;;;;;5.87;5.27;;;0.30;99.90;;;;;;5064842;28;20530;-72
2022/04/03 03:04:31;;;;;;;5.80;5.20;;;0.20;99.90;;;;;;5071725;28;20171;-72
2022/04/03 03:06:57;;;;;;;10.03;5.50;;;0.20;99.90;;;;;;5059461;28;20207;-72
2022/04/03 03:09:23;;;;;;;7.77;6.00;;;0.20;99.90;;;;;;5051629;28;20186;-72
2022/04/03 03:11:49;;;;;;;6.90;5.17;;;0.30;99.90;;;;;;5051360;28;20176;-71
2022/04/03 03:14:15;;;;;;;4.57;4.17;;;0.20;99.90;;;;;;5066138;28;20176;-72
2022/04/03 03:16:42;;;;;;;5.30;4.80;;;0.20;99.90;;;;;;5051195;28;20666;-72
2022/04/03 03:19:08;;;;;;;7.63;4.93;;;0.20;99.90;;;;;;5051443;28;20208;-72
2022/04/03 03:21:35;;;;;;;3.47;3.27;;;0.20;99.90;;;;;;5051539;28;20194;-72
2022/04/03 03:24:00;;;;;;;4.97;4.53;;;0.20;99.90;;;;;;5051377;28;20179;-72
2022/04/03 03:26:26;;;;;;;5.43;4.93;;;0.10;99.90;;;;;;5054692;28;20620;-70
2022/04/03 03:28:51;;;;;;;5.00;4.60;;;0.10;99.90;;;;;;5071300;28;20202;-71
2022/04/03 03:31:17;;;;;;;4.87;4.37;;;0.10;99.90;;;;;;5069495;28;20209;-71
2022/04/03 03:33:43;;;;;;;5.07;4.67;;;0.00;99.90;;;;;;5051405;28;20582;-72
2022/04/03 03:36:09;;;;;;;5.37;4.83;;;-0.10;99.90;;;;;;5051104;28;20245;-72
2022/04/03 03:38:35;;;;;;;4.53;4.23;;;-0.20;99.90;;;;;;5051762;28;20504;-72
2022/04/03 03:41:01;;;;;;;4.20;3.90;;;-0.20;99.90;;;;;;5054442;28;20222;-72
2022/04/03 03:43:27;;;;;;;4.60;4.23;;;-0.20;99.90;;;;;;5070858;28;20175;-72
2022/04/03 03:45:53;;;;;;;5.10;4.70;;;-0.20;99.90;;;;;;5070926;28;20199;-72
2022/04/03 03:48:18;;;;;;;5.07;4.47;;;-0.30;99.90;;;;;;5069856;28;20248;-72
2022/04/03 03:50:44;;;;;;;4.87;4.47;;;-0.20;99.90;;;;;;5065922;28;20183;-72
2022/04/03 03:53:09;;;;;;;4.73;4.43;;;-0.20;99.90;;;;;;5050796;28;20195;-72
2022/04/03 03:55:35;;;;;;;4.27;3.97;;;-0.20;99.90;;;;;;5053506;28;20283;-72
2022/04/03 03:58:00;;;;;;;4.47;4.07;;;-0.10;99.90;;;;;;5056739;28;20218;-72
2022/04/03 04:00:26;;;;;;;4.60;4.20;;;-0.10;99.90;;;;;;5070435;28;20211;-72
2022/04/03 04:02:52;;;;;;;4.70;4.40;;;-0.10;99.90;;;;;;5070838;28;20631;-72
2022/04/03 04:05:17;;;;;;;4.77;4.37;;;-0.10;99.90;;;;;;5062592;28;20184;-72
2022/04/03 04:07:45;;;;;;;5.10;4.70;;;-0.20;99.90;;;;;;5054766;28;20168;-72
2022/04/03 04:10:12;;;;;;;4.93;4.30;;;-0.10;99.90;;;;;;5061485;28;20207;-72
2022/04/03 04:12:42;;;;;;;3.47;3.27;;;-0.10;99.90;;;;;;5070209;28;20555;-71
2022/04/03 04:15:08;;;;;;;4.67;3.87;;;-0.10;99.90;;;;;;5054333;28;20179;-71
2022/04/03 04:17:35;;;;;;;4.90;4.30;;;0.00;99.90;;;;;;5054629;28;20593;-71
2022/04/03 04:20:02;;;;;;;4.37;4.07;;;-0.10;99.90;;;;;;5054601;28;20195;-71
2022/04/03 04:22:28;;;;;;;5.20;4.80;;;-0.10;99.90;;;;;;5054090;28;20195;-71
2022/04/03 04:24:53;;;;;;;5.40;4.90;;;-0.10;99.90;;;;;;5068159;28;20172;-71
2022/04/03 04:27:19;;;;;;;5.57;4.57;;;-0.10;99.90;;;;;;5085724;28;20218;-71
2022/04/03 04:29:45;;;;;;;4.77;4.30;;;0.00;99.90;;;;;;5085867;28;20210;-72
2022/04/03 04:32:10;;;;;;;5.20;4.57;;;-0.20;99.90;;;;;;5054266;28;20258;-72
2022/04/03 04:34:36;;;;;;;5.30;4.80;;;-0.20;99.90;;;;;;5072488;28;20186;-72
2022/04/03 04:37:01;;;;;;;4.63;4.33;;;-0.20;99.90;;;;;;5076964;28;20641;-71
2022/04/03 04:39:27;;;;;;;5.03;4.53;;;-0.10;99.90;;;;;;5072064;28;20302;-71
2022/04/03 04:41:53;;;;;;;4.17;3.87;;;-0.10;99.90;;;;;;5079595;28;20214;-71
2022/04/03 04:44:18;;;;;;;5.73;4.10;;;-0.10;99.90;;;;;;5073706;28;20584;-71
2022/04/03 04:46:44;;;;;;;3.93;3.63;;;-0.10;99.90;;;;;;5072368;28;20222;-71
2022/04/03 04:49:10;;;;;;;4.77;4.37;;;-0.10;99.90;;;;;;5073716;28;20183;-71
2022/04/03 04:51:35;;;;;;;4.30;4.00;;;-0.10;99.90;;;;;;5073123;28;20258;-72
2022/04/03 04:54:01;;;;;;;4.50;4.20;;;-0.20;99.90;;;;;;5071647;28;20183;-71
2022/04/03 04:56:26;;;;;;;4.93;4.53;;;-0.20;99.90;;;;;;5069198;28;20203;-71
2022/04/03 04:58:52;;;;;;;4.17;3.87;;;-0.20;99.90;;;;;;5073816;28;20189;-71
2022/04/03 05:01:18;;;;;;;4.37;3.97;;;-0.20;99.90;;;;;;5073001;28;20179;-71
2022/04/03 05:03:43;;;;;;;4.70;4.30;;;-0.30;99.90;;;;;;5071119;28;20175;-72
2022/04/03 05:06:12;;;;;;;4.83;4.43;;;-0.20;99.90;;;;;;5071926;28;20201;-71
2022/04/03 05:08:38;;;;;;;5.23;4.80;;;-0.20;99.90;;;;;;5073180;28;20182;-74
2022/04/03 05:11:04;;;;;;;5.10;4.70;;;-0.20;99.90;;;;;;5073481;28;20171;-73
2022/04/03 05:13:29;;;;;;;4.73;4.33;;;-0.10;99.90;;;;;;5068481;28;20187;-73
2022/04/03 05:15:55;;;;;;;4.50;4.10;;;-0.10;99.90;;;;;;5073144;28;20217;-73
2022/04/03 05:18:22;;;;;;;5.27;4.57;;;-0.10;99.90;;;;;;5072397;28;20269;-73
2022/04/03 05:20:48;;;;;;;4.73;4.33;;;-0.10;99.90;;;;;;5072282;28;20210;-73
2022/04/03 05:23:14;;;;;;;4.10;3.77;;;-0.10;99.90;;;;;;5070271;28;20210;-73
2022/04/03 05:25:40;;;;;;;4.60;4.20;;;0.10;99.90;;;;;;5070604;28;20246;-73
2022/04/03 05:28:08;;;;;;;5.37;4.87;;;0.10;99.90;;;;;;5070466;28;20227;-73
2022/04/03 05:30:34;;;;;;;4.50;4.17;;;0.10;99.90;;;;;;5066058;28;20179;-72
2022/04/03 05:33:00;;;;;;;4.60;4.03;;;0.10;99.90;;;;;;5055058;28;20195;-72
2022/04/03 05:35:25;;;;;;;4.03;3.63;;;0.10;99.90;;;;;;5051372;28;20199;-73
2022/04/03 05:37:51;;;;;;;6.50;5.90;;;0.20;99.90;;;;;;5053031;28;20222;-73
2022/04/03 05:40:16;;;;;;;5.53;5.13;;;0.10;99.90;;;;;;5052986;28;20200;-73
2022/04/03 05:42:42;;;;;;;4.87;4.50;;;0.00;99.90;;;;;;5070783;28;20272;-74
2022/04/03 05:45:09;;;;;;;5.47;4.30;;;0.00;99.90;;;;;;5076956;28;20220;-73
2022/04/03 05:47:35;;;;;;;5.37;4.80;;;0.10;99.90;;;;;;5090644;28;20253;-73
2022/04/03 05:50:01;;;;;;;4.50;4.20;;;0.00;99.90;;;;;;5060411;28;20262;-73
2022/04/03 05:52:27;;;;;;;4.70;4.30;;;0.10;99.90;;;;;;5052800;28;20215;-73
2022/04/03 05:54:53;;;;;;;5.27;4.40;;;0.20;99.90;;;;;;5054162;28;20172;-73
2022/04/03 05:57:18;;;;;;;4.63;4.23;;;0.20;99.90;;;;;;5063374;28;20221;-71
2022/04/03 05:59:44;;;;;;;4.83;4.43;;;0.30;99.90;;;;;;5069139;28;20207;-70
2022/04/03 06:02:12;;;;;;;4.57;4.27;;;0.30;99.90;;;;;;5067798;28;20186;-71
2022/04/03 06:04:38;;;;;;;4.17;3.87;;;0.40;99.90;;;;;;5065070;28;20704;-72
2022/04/03 06:07:03;;;;;;;6.23;4.30;;;0.40;99.90;;;;;;5069662;28;20211;-72
2022/04/03 06:09:29;;;;;;;4.07;3.77;;;0.40;99.90;;;;;;5071785;28;20560;-72
2022/04/03 06:11:55;;;;;;;4.17;3.83;;;0.40;99.90;;;;;;5071379;28;20187;-72
2022/04/03 06:14:21;;;;;;;4.23;3.73;;;0.50;99.90;;;;;;5068918;28;20214;-72
2022/04/03 06:16:46;;;;;;;4.47;4.07;;;0.50;99.90;;;;;;5069828;28;20234;-71
2022/04/03 06:19:12;;;;;;;4.17;3.87;;;0.50;99.90;;;;;;5069028;28;20296;-71
2022/04/03 06:21:38;;;;;;;4.17;3.87;;;0.40;99.90;;;;;;5068656;28;20586;-71
2022/04/03 06:24:04;;;;;;;6.23;3.90;;;0.40;99.90;;;;;;5062477;28;20183;-71
2022/04/03 06:26:29;;;;;;;4.57;4.20;;;0.40;99.90;;;;;;5061389;28;20225;-71
2022/04/03 06:28:55;;;;;;;6.03;4.20;;;0.50;99.90;;;;;;5071323;28;20183;-72
2022/04/03 06:31:21;;;;;;;4.50;4.10;;;0.50;99.90;;;;;;5071476;28;20262;-73
2022/04/03 06:33:46;;;;;;;4.40;4.10;;;0.60;99.90;;;;;;5070159;28;20183;-72
2022/04/03 06:36:12;;;;;;;4.87;4.40;;;0.60;99.90;;;;;;5067526;28;20744;-72
2022/04/03 06:38:37;;;;;;;3.67;3.43;;;0.60;99.90;;;;;;5056285;28;20164;-72
2022/04/03 06:41:03;;;;;;;3.73;3.50;;;0.60;99.90;;;;;;5051796;28;20280;-73
2022/04/03 06:43:30;;;;;;;4.13;3.83;;;0.70;99.90;;;;;;5063073;28;20677;-71
2022/04/03 06:45:57;;;;;;;3.87;3.57;;;0.80;99.90;;;;;;5071870;28;20228;-71
2022/04/03 06:48:23;;;;;;;3.93;3.63;;;0.90;99.90;;;;;;5052582;28;20168;-71
2022/04/03 06:50:49;;;;;;;4.20;3.80;;;1.00;99.90;;;;;;5057730;28;20215;-71
2022/04/03 06:53:14;;;;;;;4.77;4.37;;;1.10;99.90;;;;;;5054745;28;20727;-71
2022/04/03 06:55:40;;;;;;;4.10;3.40;;;1.10;99.90;;;;;;5056824;28;20287;-71
2022/04/03 06:58:06;;;;;;;4.20;3.90;;;1.10;99.90;;;;;;5062204;28;20199;-72
2022/04/03 07:00:31;;;;;;;4.37;3.97;;;1.20;99.90;;;;;;5051772;28;20274;-72
2022/04/03 07:02:57;;;;;;;4.83;3.67;;;1.10;99.90;;;;;;5050338;28;20180;-72
2022/04/03 07:05:23;;;;;;;4.30;3.90;;;1.10;99.90;;;;;;5055680;28;20183;-72
2022/04/03 07:07:52;;;;;;;4.10;3.80;;;1.20;99.90;;;;;;5060267;28;20198;-72
2022/04/03 07:10:19;;;;;;;4.20;3.80;;;1.20;99.90;;;;;;5059827;28;20175;-71
2022/04/03 07:12:44;;;;;;;4.10;3.80;;;1.30;99.90;;;;;;5065156;28;20180;-72
2022/04/03 07:15:12;;;;;;;4.50;3.63;;;1.40;99.90;;;;;;5064782;28;20547;-71
2022/04/03 07:17:42;;;;;;;3.47;3.27;;;1.50;99.90;;;;;;5062663;28;20258;-72
2022/04/03 07:20:08;;;;;;;3.73;3.43;;;1.40;99.90;;;;;;5051559;28;20641;-71
2022/04/03 07:22:34;;;;;;;3.97;3.67;;;1.50;99.90;;;;;;5067864;28;20167;-71
2022/04/03 07:24:59;;;;;;;4.63;4.07;;;1.50;99.90;;;;;;5054782;28;20179;-72
2022/04/03 07:27:27;;;;;;;3.43;3.23;;;1.60;99.90;;;;;;5051400;28;20195;-71
2022/04/03 07:29:52;;;;;;;4.10;3.70;;;1.60;99.90;;;;;;5054684;28;20210;-71
2022/04/03 07:32:18;;;;;;;4.17;3.70;;;1.60;99.90;;;;;;5068564;28;20184;-72
2022/04/03 07:34:44;;;;;;;4.07;3.77;;;1.50;99.90;;;;;;5057962;28;20559;-72
2022/04/03 07:37:09;;;;;;;4.10;3.70;;;1.60;99.90;;;;;;5068584;28;20195;-73
2022/04/03 07:39:35;;;;;;;4.27;3.90;;;1.50;99.90;;;;;;5070314;28;20241;-73
2022/04/03 07:42:03;;;;;;;3.57;3.33;;;1.50;99.90;;;;;;5069665;28;20214;-72
2022/04/03 07:44:28;;;;;;;4.53;4.23;;;1.50;99.90;;;;;;5074455;28;20650;-72
2022/04/03 07:46:54;;;;;;;4.47;3.90;;;1.50;99.90;;;;;;5074436;28;20201;-72
2022/04/03 07:49:20;;;;;;;4.10;3.80;;;1.60;99.90;;;;;;5073182;28;20191;-72
2022/04/03 07:51:46;;;;;;;4.30;3.90;;;1.70;99.90;;;;;;5074034;28;20175;-71
2022/04/03 07:54:11;;;;;;;4.57;3.67;;;1.80;99.90;;;;;;5074708;28;20176;-71
2022/04/03 07:56:37;;;;;;;4.47;3.90;;;1.80;99.90;;;;;;5074475;28;20215;-70
2022/04/03 07:59:05;;;;;;;6.00;3.67;;;1.90;99.90;;;;;;5072613;28;20179;-72
2022/04/03 08:01:33;;;;;;;4.13;3.73;;;1.90;99.90;;;;;;5071845;28;20254;-72
2022/04/03 08:03:59;;;;;;;4.50;4.10;;;2.00;99.90;;;;;;5074566;28;20175;-72
2022/04/03 08:06:24;;;;;;;3.87;3.50;;;2.20;99.90;;;;;;5073549;28;20723;-72
2022/04/03 08:08:50;;;;;;;3.67;3.37;;;2.20;99.90;;;;;;5071153;28;20183;-73
2022/04/03 08:11:16;;;;;;;3.87;3.57;;;2.30;99.90;;;;;;5074188;28;20466;-71
2022/04/03 08:13:42;;;;;;;4.27;3.37;;;2.50;99.90;;;;;;5073548;28;20175;-71
2022/04/03 08:16:08;;;;;;;4.67;4.17;;;2.60;99.90;;;;;;5073124;28;20624;-70
2022/04/03 08:18:33;;;;;;;3.77;3.47;;;2.70;99.90;;;;;;5070841;28;20183;-70
2022/04/03 08:20:59;;;;;;;5.87;4.13;;;2.80;99.90;;;;;;5073651;28;20218;-70
2022/04/03 08:23:25;;;;;;;4.60;3.53;;;2.90;99.90;;;;;;5067861;28;20802;-71
2022/04/03 08:25:50;;;;;;;3.57;3.27;;;3.00;99.90;;;;;;5061404;28;20207;-70
2022/04/03 08:28:17;;;;;;;3.47;3.17;;;3.10;99.90;;;;;;5057258;28;20187;-72
2022/04/03 08:30:42;;;;;;;3.87;3.57;;;3.40;99.90;;;;;;5069379;28;20202;-72
2022/04/03 08:33:11;;;;;;;3.53;3.33;;;3.50;99.90;;;;;;5071295;28;20183;-72
2022/04/03 08:35:38;;;;;;;3.83;3.53;;;3.50;99.90;;;;;;5088921;28;20649;-72
2022/04/03 08:38:05;;;;;;;4.77;3.87;;;3.80;99.90;;;;;;5062495;28;20183;-71
2022/04/03 08:40:33;;;;;;;3.70;3.40;;;4.10;99.90;;;;;;5058021;28;20234;-72
2022/04/03 08:42:58;;;;;;;3.50;3.20;;;4.30;99.90;;;;;;5063945;28;20194;-72
2022/04/03 08:45:24;;;;;;;3.70;3.40;;;4.40;99.90;;;;;;5067937;28;20622;-71
2022/04/03 08:47:52;;;;;;;3.85;3.55;;;4.60;99.90;;;;;;5075081;28;20187;-72
2022/04/03 08:50:20;;;;;;;4.93;4.33;;;4.60;99.90;;;;;;5064175;28;20190;-72
2022/04/03 08:52:48;;;;;;;3.77;3.47;;;4.90;99.90;;;;;;5063042;28;20269;-71
2022/04/03 08:55:15;;;;;;;4.57;3.40;;;5.00;99.90;;;;;;5064524;28;20209;-70
2022/04/03 08:57:41;;;;;;;4.57;3.63;;;4.90;99.90;;;;;;5069239;28;20172;-70
2022/04/03 09:00:08;;;;;;;3.90;3.60;;;4.90;99.90;;;;;;5062514;28;20682;-70
2022/04/03 09:02:34;;;;;;;3.80;3.50;;;5.10;99.90;;;;;;5063523;28;20673;-70
2022/04/03 09:05:00;;;;;;;4.20;3.38;;;5.60;99.90;;;;;;5056444;28;20557;-69
2022/04/03 09:07:26;;;;;;;3.80;3.50;;;5.90;99.90;;;;;;5079903;28;20195;-70
2022/04/03 09:10:18;;;;;;;3.47;3.17;;;6.10;99.90;;;;;;5081067;28;20236;-70
2022/04/03 09:12:48;;;;;;;3.17;2.95;;;7.80;99.90;;;;;;5062378;28;20199;-70
2022/04/03 09:15:16;;;;;;;3.83;3.30;;;8.20;99.90;;;;;;5064532;28;20567;-70
2022/04/03 09:17:44;;;;;;;3.75;3.40;;;7.80;99.90;;;;;;5069182;28;20171;-70
2022/04/03 09:20:13;;;;;;;5.47;3.65;;;7.70;99.90;;;;;;5066095;28;20199;-70
2022/04/03 09:22:41;;;;;;;4.45;3.47;;;8.60;99.90;;;;;;5065061;28;20174;-70
2022/04/03 09:25:09;;;;;;;3.33;3.13;;;9.10;99.90;;;;;;5063823;28;20188;-70
2022/04/03 09:27:46;;;;;;;3.33;2.92;;;8.90;99.90;;;;;;5067100;28;20183;-71
2022/04/03 09:30:12;;;;;;;3.55;3.30;;;8.90;99.90;;;;;;5063841;28;20277;-71
2022/04/03 09:32:51;;;;;;;4.28;3.40;;;8.80;99.90;;;;;;5072689;28;20211;-71
2022/04/03 09:35:19;;;;;;;3.40;3.10;;;8.80;99.90;;;;;;5072624;28;20197;-73
2022/04/03 09:38:12;;;;;;;3.65;3.45;;;10.70;99.90;;;;;;5063439;28;20190;-73
2022/04/03 09:40:40;;;;;;;3.13;2.92;;;10.90;99.90;;;;;;5058901;28;20211;-73
2022/04/03 09:43:15;;;;;;;3.65;2.78;;;10.00;99.90;;;;;;5084067;28;20175;-73
2022/04/03 09:45:48;;;;;;;3.45;3.15;;;8.90;99.90;;;;;;5068210;28;20189;-73
2022/04/03 09:48:20;;;;;;;3.58;3.25;;;9.40;99.90;;;;;;5065536;28;20211;-73
2022/04/03 09:50:55;;;;;;;3.35;3.15;;;10.90;99.90;;;;;;5073308;28;20175;-73
2022/04/03 09:53:20;;;;;;;2.80;2.58;;;12.80;96.60;;;;;;5078042;28;20542;-72
2022/04/03 09:55:46;;;;;;;2.78;2.58;;;14.60;91.30;;;;;;5073737;28;20199;-73
2022/04/03 09:58:12;;;;;;;3.20;3.00;;;15.50;88.10;;;;;;5071244;28;20195;-76
2022/04/03 10:00:41;;;;;;;3.95;2.90;;;14.50;84.00;;;;;;5080803;28;20751;-73
2022/04/03 10:03:10;;;;;;;2.80;2.60;;;13.70;78.80;;;;;;5062782;28;20223;-73
2022/04/03 10:05:36;;;;;;;2.85;2.75;;;14.00;82.40;;;;;;5055898;28;20199;-72
2022/04/03 10:08:03;;;;;;;2.80;2.60;;;13.60;81.80;;;;;;5064325;28;20179;-72
2022/04/03 10:10:30;;;;;;;2.97;2.60;;;12.50;79.60;;;;;;5063906;28;20180;-75
2022/04/03 10:12:56;;;;;;;3.28;2.97;;;11.60;73.60;;;;;;5062503;28;20183;-74
2022/04/03 10:15:26;;;;;;;3.53;2.80;;;10.20;83.80;;;;;;5063247;28;20221;-74
2022/04/03 10:17:52;;;;;;;3.53;3.22;;;9.50;91.00;;;;;;5063206;28;20183;-74
2022/04/03 10:20:17;;;;;;;3.38;2.95;;;10.00;92.00;;;;;;5061888;28;20215;-74
2022/04/03 10:22:48;;;;;;;2.88;2.67;;;11.50;83.20;;;;;;5062525;28;20179;-74
2022/04/03 10:25:19;;;;;;;3.13;2.60;;;12.20;85.50;;;;;;5059981;28;20214;-75
2022/04/03 10:27:47;;;;;;;2.85;2.75;;;12.10;80.30;;;;;;5061946;28;20673;-75
2022/04/03 10:30:15;;;;;;;3.45;3.17;;;10.50;80.90;;;;;;5062856;28;20175;-75
2022/04/03 10:32:41;;;;;;;3.72;3.15;;;8.70;89.60;;;;;;5063328;28;20211;-77
2022/04/03 10:35:10;;;;;;;3.28;3.08;;;7.30;93.70;;;;;;5062002;28;20199;-73
2022/04/03 10:37:38;;;;;;;3.72;3.35;;;6.50;98.10;;;;;;5059926;28;20558;-76
2022/04/03 10:40:10;;;;;;;3.60;3.20;;;6.00;98.70;;;;;;5060255;28;20565;-73
2022/04/03 10:42:52;;;;;;;3.58;3.28;;;5.80;99.90;;;;;;5057556;28;20211;-73
2022/04/03 10:45:23;;;;;;;3.15;2.85;;;5.60;99.90;;;;;;5061623;28;20229;-71
2022/04/03 10:47:50;;;;;;;3.10;2.85;;;5.60;99.90;;;;;;5062489;28;20607;-71
2022/04/03 10:50:16;;;;;;;3.33;3.13;;;5.60;99.90;;;;;;5058116;28;20720;-69
2022/04/03 10:52:41;;;;;;;3.92;3.72;;;5.70;99.90;;;;;;5060577;28;20179;-70
2022/04/03 10:55:25;;;;;;;3.33;3.13;;;5.90;99.90;;;;;;5059780;28;20176;-70
2022/04/03 10:58:06;;;;;;;4.28;3.20;;;5.80;99.90;;;;;;5063956;28;20198;-71
2022/04/03 11:00:32;;;;;;;3.38;3.08;;;5.90;99.40;;;;;;5062808;28;20198;-70
2022/04/03 11:02:58;;;;;;;3.90;3.60;;;6.20;98.00;;;;;;5061303;28;20175;-70
2022/04/03 11:05:26;;;;;;;2.70;2.60;;;6.40;99.90;;;;;;5059239;28;20180;-70
2022/04/03 11:07:59;;;;;;;3.30;3.00;;;6.60;97.40;;;;;;5063575;28;20172;-70
2022/04/03 11:10:45;;;;;;;3.53;3.33;;;6.50;99.50;;;;;;5059427;28;20278;-70
2022/04/03 11:13:35;;;;;;;3.45;3.15;;;6.60;98.00;;;;;;5055177;28;20233;-71
2022/04/03 11:16:11;;;;;;;5.35;3.58;;;6.50;99.90;;;;;;5056315;28;20215;-71
2022/04/03 11:18:49;;;;;;;3.75;3.00;;;6.90;97.10;;;;;;5066394;28;20180;-70
2022/04/03 11:21:16;;;;;;;4.22;3.83;;;7.10;96.20;;;;;;5064831;28;20202;-70
2022/04/03 11:23:47;;;;;;;3.70;3.00;;;7.00;97.90;;;;;;5066049;28;20661;-70
2022/04/03 11:26:13;;;;;;;4.45;3.35;;;6.80;99.20;;;;;;5064968;28;20212;-70
2022/04/03 11:28:39;;;;;;;3.20;3.00;;;7.00;96.80;;;;;;5062051;28;20237;-71
2022/04/03 11:31:05;;;;;;;3.40;3.20;;;7.50;94.30;;;;;;5061978;28;20209;-71
2022/04/03 11:33:32;;;;;;;3.22;2.92;;;7.60;95.40;;;;;;5065882;28;20183;-71
2022/04/03 11:36:24;;;;;;;3.05;2.85;;;7.80;96.50;;;;;;5063988;28;20831;-71
2022/04/03 11:38:51;;;;;;;3.20;3.00;;;8.40;96.50;;;;;;5063001;28;20274;-74
2022/04/03 11:41:20;;;;;;;2.90;2.75;;;8.70;93.70;;;;;;5067914;28;20210;-74
2022/04/03 11:44:07;;;;;;;2.70;2.60;;;9.10;93.50;;;;;;5063987;28;20172;-73
2022/04/03 11:46:41;;;;;;;2.67;2.47;;;9.80;90.70;;;;;;5061219;28;20199;-73
2022/04/03 11:49:17;;;;;;;2.90;2.70;;;10.00;83.30;;;;;;5060432;28;20187;-74
2022/04/03 11:51:45;;;;;;;2.58;2.47;;;9.80;85.80;;;;;;5060755;28;20176;-74
2022/04/03 11:54:13;;;;;;;2.85;2.65;;;9.70;86.10;;;;;;5059282;28;20683;-74
2022/04/03 11:56:38;;;;;;;2.28;2.17;;;9.70;82.80;;;;;;5059802;28;20203;-74
2022/04/03 11:59:05;;;;;;;3.05;2.78;;;9.80;80.20;;;;;;5060112;28;20597;-74
2022/04/03 12:01:31;;;;;;;3.28;2.97;;;9.60;79.60;;;;;;5064907;28;20227;-74
2022/04/03 12:04:01;;;;;;;2.53;2.33;;;9.80;83.10;;;;;;5059179;28;20260;-74
2022/04/03 12:06:31;;;;;;;2.85;2.65;;;9.60;83.90;;;;;;5066985;28;20236;-74
2022/04/03 12:08:56;;;;;;;2.60;2.50;;;9.70;80.10;;;;;;5059373;28;20179;-74
2022/04/03 12:11:28;;;;;;;2.70;2.50;;;9.80;78.10;;;;;;5060895;28;20175;-74
2022/04/03 12:13:55;;;;;;;2.90;2.70;;;9.70;81.20;;;;;;5064913;28;20194;-73
2022/04/03 12:16:27;;;;;;;2.70;2.50;;;9.90;76.00;;;;;;5065706;28;20678;-74
2022/04/03 12:18:57;;;;;;;2.80;2.47;;;9.80;79.30;;;;;;5063172;28;20183;-74
2022/04/03 12:21:39;;;;;;;2.83;2.63;;;10.50;72.20;;;;;;5065370;28;20195;-75
2022/04/03 12:24:24;;;;;;;2.95;2.55;;;12.30;80.40;;;;;;5062438;28;20647;-74
2022/04/03 12:26:50;;;;;;;2.50;2.40;;;14.30;72.60;;;;;;5067680;28;20716;-74
2022/04/03 12:29:17;;;;;;;2.60;2.40;;;16.00;60.70;;;;;;5067315;28;20176;-74
2022/04/03 12:31:44;;;;;;;2.60;2.40;;;17.30;54.80;;;;;;5064910;28;20646;-74
2022/04/03 12:34:15;;;;;;;3.03;2.78;;;17.60;49.80;;;;;;5068279;28;20186;-74
2022/04/03 12:36:49;;;;;;;2.50;2.30;;;18.70;50.20;;;;;;5066564;28;20665;-74
2022/04/03 12:39:33;;;;;;;2.40;2.20;;;19.70;44.20;;;;;;5067594;28;20566;-74
2022/04/03 12:42:32;;;;;;;4.07;2.30;;;19.80;45.60;;;;;;5070467;28;20228;-75
2022/04/03 12:45:03;;;;;;;2.47;2.38;;;17.70;46.10;;;;;;5014824;28;20188;-74
2022/04/03 12:47:37;;;;;;;2.47;2.20;;;16.40;49.20;;;;;;5066279;28;20187;-74
2022/04/03 12:50:06;;;;;;;2.53;2.33;;;15.90;49.80;;;;;;5061187;28;20195;-74
2022/04/03 12:52:43;;;;;;;3.15;2.47;;;15.00;48.80;;;;;;5062863;28;20187;-75
2022/04/03 12:55:33;;;;;;;2.50;2.30;;;14.10;53.40;;;;;;5069249;28;20187;-75
2022/04/03 13:00:54;;;;;;;2.22;2.13;;;13.90;52.10;;;;;;5069561;28;20217;-73